createdAt,value
2018-04-17T00:00:45.076Z,5.97
2018-04-17T00:03:13.869Z,5.95
2018-04-17T00:05:42.256Z,6.78
2018-04-17T00:08:10.636Z,6.07
2018-04-17T00:10:39.044Z,5.65
2018-04-17T00:13:08.212Z,5.45
2018-04-17T00:15:36.679Z,5.72
2018-04-17T00:18:05.101Z,4.95
2018-04-17T00:20:34.457Z,5.47
2018-04-17T00:23:02.871Z,7.10
2018-04-17T00:25:32.751Z,6.57
2018-04-17T00:28:01.153Z,6.53
2018-04-17T00:30:29.533Z,6.70
2018-04-17T00:32:57.992Z,7.15
2018-04-17T00:35:26.364Z,7.12
2018-04-17T00:37:54.958Z,6.85
2018-04-17T00:40:23.344Z,7.53
2018-04-17T00:42:51.713Z,6.50
2018-04-17T00:45:20.121Z,6.43
2018-04-17T00:47:48.495Z,6.55
2018-04-17T00:50:16.896Z,7.30
2018-04-17T00:52:46.050Z,5.90
2018-04-17T00:55:14.436Z,7.75
2018-04-17T00:57:42.826Z,6.50
2018-04-17T01:00:11.204Z,5.93
2018-04-17T01:02:39.604Z,6.45
2018-04-17T01:05:08.748Z,6.25
2018-04-17T01:07:37.331Z,6.10
2018-04-17T01:10:05.720Z,6.28
2018-04-17T01:12:34.087Z,6.25
2018-04-17T01:15:02.489Z,6.65
2018-04-17T01:17:31.351Z,6.40
2018-04-17T01:20:01.828Z,6.62
2018-04-17T01:22:30.702Z,5.60
2018-04-17T01:24:59.859Z,6.78
2018-04-17T01:27:28.755Z,5.90
2018-04-17T01:29:57.725Z,6.87
2018-04-17T01:32:26.731Z,6.75
2018-04-17T01:34:56.371Z,6.68
2018-04-17T01:37:25.578Z,7.22
2018-04-17T01:39:55.259Z,6.82
2018-04-17T01:42:24.587Z,7.30
2018-04-17T01:44:52.969Z,6.68
2018-04-17T01:47:21.345Z,6.78
2018-04-17T01:49:49.731Z,7.47
2018-04-17T01:52:18.109Z,7.18
2018-04-17T01:54:48.013Z,6.95
2018-04-17T01:57:16.394Z,6.95
2018-04-17T01:59:45.144Z,7.80
2018-04-17T02:02:13.520Z,8.02
2018-04-17T02:04:41.897Z,8.80
2018-04-17T02:07:10.292Z,7.82
2018-04-17T02:09:38.656Z,7.97
2018-04-17T02:12:07.064Z,10.00
2018-04-17T02:14:35.437Z,8.68
2018-04-17T02:17:04.101Z,9.02
2018-04-17T02:19:32.481Z,9.65
2018-04-17T02:22:00.866Z,8.85
2018-04-17T02:24:29.261Z,8.45
2018-04-17T02:26:57.661Z,8.80
2018-04-17T02:29:26.057Z,9.70
2018-04-17T02:31:55.196Z,7.53
2018-04-17T02:34:23.613Z,8.43
2018-04-17T02:36:51.981Z,8.18
2018-04-17T02:39:20.361Z,8.35
2018-04-17T02:41:48.761Z,8.98
2018-04-17T02:44:17.921Z,9.13
2018-04-17T02:46:46.320Z,8.35
2018-04-17T02:49:14.718Z,8.43
2018-04-17T02:51:43.898Z,8.20
2018-04-17T02:54:12.281Z,9.25
2018-04-17T02:56:40.653Z,8.50
2018-04-17T02:59:09.046Z,8.73
2018-04-17T03:01:37.430Z,9.07
2018-04-17T03:04:06.586Z,8.63
2018-04-17T03:06:34.972Z,9.35
2018-04-17T03:09:03.529Z,8.90
2018-04-17T03:11:31.897Z,7.20
2018-04-17T03:14:00.272Z,9.18
2018-04-17T03:16:28.669Z,8.57
2018-04-17T03:18:57.040Z,8.45
2018-04-17T03:21:25.444Z,8.68
2018-04-17T03:23:53.822Z,9.80
2018-04-17T03:26:22.228Z,9.70
2018-04-17T03:28:51.372Z,9.73
2018-04-17T03:31:19.748Z,8.00
2018-04-17T03:33:48.143Z,10.13
2018-04-17T03:36:16.532Z,9.27
2018-04-17T03:38:44.967Z,9.73
2018-04-17T03:41:13.340Z,8.85
2018-04-17T03:43:41.769Z,7.85
2018-04-17T03:46:10.145Z,8.52
2018-04-17T03:48:38.523Z,8.10
2018-04-17T03:51:06.920Z,8.65
2018-04-17T03:53:35.290Z,8.18
2018-04-17T03:56:03.681Z,8.73
2018-04-17T03:58:32.053Z,8.90
2018-04-17T04:01:00.796Z,9.05
2018-04-17T04:03:29.162Z,8.90
2018-04-17T04:05:57.528Z,8.68
2018-04-17T04:08:25.942Z,8.80
2018-04-17T04:10:54.428Z,10.00
2018-04-17T04:13:22.825Z,9.43
2018-04-17T04:15:51.192Z,8.15
2018-04-17T04:18:37.445Z,9.35
2018-04-17T04:21:23.721Z,9.07
2018-04-17T04:24:10.042Z,9.00
2018-04-17T04:26:38.442Z,10.20
2018-04-17T04:29:06.844Z,10.35
2018-04-17T04:31:35.224Z,10.15
2018-04-17T04:34:03.622Z,8.98
2018-04-17T04:36:31.997Z,10.55
2018-04-17T04:39:00.408Z,9.90
2018-04-17T04:41:29.557Z,9.50
2018-04-17T04:43:58.006Z,9.00
2018-04-17T04:46:26.415Z,8.75
2018-04-17T04:48:54.788Z,9.40
2018-04-17T04:51:23.186Z,8.70
2018-04-17T04:53:51.572Z,8.55
2018-04-17T04:56:20.222Z,10.02
2018-04-17T04:58:48.592Z,7.75
2018-04-17T05:01:16.957Z,7.97
2018-04-17T05:03:45.370Z,8.63
2018-04-17T05:06:13.788Z,9.15
2018-04-17T05:08:42.173Z,8.32
2018-04-17T05:11:11.345Z,8.80
2018-04-17T05:13:39.773Z,8.15
2018-04-17T05:16:08.153Z,8.00
2018-04-17T05:18:36.532Z,7.95
2018-04-17T05:21:04.937Z,8.77
2018-04-17T05:23:33.330Z,7.30
2018-04-17T05:26:01.743Z,7.30
2018-04-17T05:28:30.900Z,7.45
2018-04-17T05:30:59.366Z,7.47
2018-04-17T05:33:27.793Z,8.00
2018-04-17T05:35:56.959Z,8.07
2018-04-17T05:38:25.366Z,7.62
2018-04-17T05:40:54.520Z,6.97
2018-04-17T05:43:22.923Z,8.18
2018-04-17T05:45:51.305Z,7.05
2018-04-17T05:48:19.957Z,6.95
2018-04-17T05:50:48.372Z,5.90
2018-04-17T05:53:16.748Z,6.47
2018-04-17T05:55:45.153Z,6.55
2018-04-17T05:58:13.536Z,6.60
2018-04-17T06:00:42.702Z,6.50
2018-04-17T06:03:11.072Z,6.62
2018-04-17T06:05:39.499Z,5.57
2018-04-17T06:08:07.884Z,5.50
2018-04-17T06:10:36.260Z,5.43
2018-04-17T06:13:04.665Z,5.57
2018-04-17T06:15:33.038Z,5.25
2018-04-17T06:18:01.437Z,5.95
2018-04-17T06:20:29.824Z,6.15
2018-04-17T06:22:58.376Z,5.57
2018-04-17T06:25:26.757Z,5.75
2018-04-17T06:27:55.141Z,6.43
2018-04-17T06:30:23.541Z,5.37
2018-04-17T06:32:51.917Z,5.07
2018-04-17T06:35:20.320Z,4.37
2018-04-17T06:37:49.468Z,5.70
2018-04-17T06:40:18.257Z,6.12
2018-04-17T06:42:46.641Z,5.53
2018-04-17T06:45:15.020Z,4.62
2018-04-17T06:47:43.736Z,5.95
2018-04-17T06:50:12.074Z,5.50
2018-04-17T06:52:40.483Z,6.85
2018-04-17T06:55:08.868Z,5.87
2018-04-17T06:57:37.289Z,4.15
2018-04-17T07:00:05.668Z,5.45
2018-04-17T07:02:34.100Z,5.32
2018-04-17T07:05:02.473Z,4.82
2018-04-17T07:07:30.844Z,5.28
2018-04-17T07:09:59.255Z,5.82
2018-04-17T07:12:28.399Z,5.47
2018-04-17T07:14:57.132Z,4.80
2018-04-17T07:17:26.272Z,6.75
2018-04-17T07:19:55.503Z,5.55
2018-04-17T07:22:23.900Z,5.47
2018-04-17T07:24:52.276Z,6.18
2018-04-17T07:27:20.874Z,5.35
2018-04-17T07:29:50.997Z,5.10
2018-04-17T07:32:20.173Z,5.03
2018-04-17T07:34:48.585Z,6.57
2018-04-17T07:37:16.993Z,6.18
2018-04-17T07:39:45.430Z,6.40
2018-04-17T07:42:14.580Z,6.37
2018-04-17T07:44:42.995Z,6.82
2018-04-17T07:47:32.251Z,6.60
2018-04-17T07:50:00.657Z,5.70
2018-04-17T07:52:29.040Z,5.62
2018-04-17T07:54:57.680Z,5.30
2018-04-17T07:57:35.933Z,5.60
2018-04-17T08:00:04.785Z,8.07
2018-04-17T08:02:33.176Z,6.00
2018-04-17T08:05:01.728Z,6.30
2018-04-17T08:07:30.101Z,6.20
2018-04-17T08:09:58.488Z,6.40
2018-04-17T08:12:26.893Z,17.97
2018-04-17T08:14:55.271Z,8.13
2018-04-17T08:17:23.689Z,6.60
2018-04-17T08:19:52.079Z,5.60
2018-04-17T08:22:20.509Z,5.90
2018-04-17T08:24:48.883Z,5.70
2018-04-17T08:27:17.265Z,7.63
2018-04-17T08:29:45.660Z,6.90
2018-04-17T08:32:14.810Z,7.90
2018-04-17T08:34:43.218Z,6.70
2018-04-17T08:37:11.596Z,7.10
2018-04-17T08:39:40.046Z,6.07
2018-04-17T08:42:08.446Z,7.57
2018-04-17T08:44:36.829Z,6.30
2018-04-17T08:47:05.236Z,6.90
2018-04-17T08:49:34.386Z,6.80
2018-04-17T08:52:02.767Z,6.67
2018-04-17T08:54:32.337Z,7.40
2018-04-17T08:57:00.744Z,6.10
2018-04-17T08:59:29.135Z,7.60
2018-04-17T09:01:57.603Z,8.37
2018-04-17T09:04:25.981Z,7.80
2018-04-17T09:06:54.359Z,7.20
2018-04-17T09:09:22.835Z,8.23
2018-04-17T09:11:51.446Z,8.90
2018-04-17T09:14:19.906Z,6.97
2018-04-17T09:16:48.345Z,7.77
2018-04-17T09:19:17.484Z,5.63
2018-04-17T09:21:45.854Z,8.00
2018-04-17T09:24:14.262Z,7.30
2018-04-17T09:26:42.637Z,6.20
2018-04-17T09:29:11.016Z,5.90
2018-04-17T09:31:39.420Z,6.50
2018-04-17T09:34:08.634Z,6.47
2018-04-17T09:36:37.004Z,4.90
2018-04-17T09:39:08.037Z,5.70
2018-04-17T09:41:37.177Z,5.10
2018-04-17T09:44:05.545Z,5.10
2018-04-17T09:46:33.956Z,4.63
2018-04-17T09:49:02.321Z,3.53
2018-04-17T09:51:30.689Z,4.63
2018-04-17T09:53:59.092Z,4.40
2018-04-17T09:56:27.465Z,5.03
2018-04-17T09:58:55.830Z,5.27
2018-04-17T10:01:24.232Z,4.90
2018-04-17T10:03:52.601Z,3.70
2018-04-17T10:06:20.968Z,3.50
2018-04-17T10:08:50.124Z,5.00
2018-04-17T10:11:18.515Z,4.63
2018-04-17T10:13:46.881Z,2.63
2018-04-17T10:16:15.276Z,3.33
2018-04-17T10:18:43.649Z,3.20
2018-04-17T10:21:12.060Z,2.10
2018-04-17T10:23:40.442Z,3.60
2018-04-17T10:26:08.809Z,2.83
2018-04-17T10:28:37.176Z,4.00
2018-04-17T10:31:05.588Z,3.13
2018-04-17T10:33:34.215Z,3.00
2018-04-17T10:36:02.793Z,3.77
2018-04-17T10:38:31.964Z,3.40
2018-04-17T10:41:00.337Z,8.90
2018-04-17T10:43:28.872Z,5.90
2018-04-17T10:45:57.270Z,6.63
2018-04-17T10:48:25.783Z,6.10
2018-04-17T10:50:54.150Z,6.57
2018-04-17T10:53:22.556Z,6.80
2018-04-17T10:55:51.809Z,7.07
2018-04-17T10:58:20.204Z,6.70
2018-04-17T11:00:48.605Z,7.33
2018-04-17T11:03:16.986Z,8.43
2018-04-17T11:05:46.133Z,8.70
2018-04-17T11:08:14.533Z,7.43
2018-04-17T11:10:42.932Z,7.33
2018-04-17T11:13:11.305Z,6.77
2018-04-17T11:15:39.724Z,7.47
2018-04-17T11:18:08.089Z,7.10
2018-04-17T11:20:37.225Z,9.13
2018-04-17T11:23:05.631Z,9.70
2018-04-17T11:25:34.032Z,8.73
2018-04-17T11:28:03.223Z,8.50
2018-04-17T11:30:31.628Z,7.23
2018-04-17T11:33:00.009Z,8.20
2018-04-17T11:35:28.397Z,6.93
2018-04-17T11:37:56.813Z,7.20
2018-04-17T11:40:25.877Z,8.40
2018-04-17T11:42:54.387Z,15.97
2018-04-17T11:45:22.768Z,19.40
2018-04-17T11:47:51.141Z,9.23
2018-04-17T11:50:19.516Z,7.97
2018-04-17T11:52:47.950Z,9.73
2018-04-17T11:55:17.086Z,9.53
2018-04-17T11:57:45.464Z,10.00
2018-04-17T12:00:13.888Z,8.80
2018-04-17T12:02:43.024Z,9.17
2018-04-17T12:05:11.412Z,9.00
2018-04-17T12:07:39.855Z,10.57
2018-04-17T12:10:08.989Z,9.57
2018-04-17T12:12:37.357Z,9.40
2018-04-17T12:15:05.756Z,8.37
2018-04-17T12:17:34.125Z,9.53
2018-04-17T12:20:02.497Z,9.70
2018-04-17T12:22:30.920Z,10.07
2018-04-17T12:24:59.295Z,9.07
2018-04-17T12:27:27.671Z,9.23
2018-04-17T12:29:56.076Z,11.27
2018-04-17T12:32:25.226Z,10.60
2018-04-17T12:34:53.710Z,8.50
2018-04-17T12:37:22.109Z,9.13
2018-04-17T12:39:50.480Z,6.87
2018-04-17T12:42:20.348Z,8.13
2018-04-17T12:44:48.940Z,6.87
2018-04-17T12:47:17.310Z,7.70
2018-04-17T12:49:45.693Z,6.53
2018-04-17T12:52:14.377Z,5.90
2018-04-17T12:54:42.745Z,5.77
2018-04-17T12:57:11.473Z,6.33
2018-04-17T12:59:39.980Z,7.07
2018-04-17T13:02:09.117Z,6.60
2018-04-17T13:04:37.652Z,6.50
2018-04-17T13:07:06.196Z,6.10
2018-04-17T13:09:34.581Z,7.27
2018-04-17T13:12:02.953Z,6.90
2018-04-17T13:14:31.360Z,6.67
2018-04-17T13:16:59.728Z,7.10
2018-04-17T13:19:28.108Z,5.77
2018-04-17T13:21:56.570Z,6.93
2018-04-17T13:24:25.001Z,7.70
2018-04-17T13:26:54.137Z,9.37
2018-04-17T13:29:22.817Z,8.33
2018-04-17T13:31:51.188Z,9.20
2018-04-17T13:34:19.569Z,7.67
2018-04-17T13:36:47.981Z,8.40
2018-04-17T13:39:16.358Z,8.77
2018-04-17T13:41:44.741Z,8.57
2018-04-17T13:44:13.569Z,8.37
2018-04-17T13:46:42.095Z,8.57
2018-04-17T13:49:10.469Z,8.30
2018-04-17T13:51:39.158Z,6.43
2018-04-17T13:54:07.612Z,6.07
2018-04-17T13:56:35.974Z,5.13
2018-04-17T13:59:05.404Z,5.10
2018-04-17T14:01:33.876Z,15.93
2018-04-17T14:04:02.276Z,9.20
2018-04-17T14:06:30.704Z,5.47
2018-04-17T14:08:59.904Z,4.90
2018-04-17T14:11:29.060Z,3.50
2018-04-17T14:13:58.928Z,4.47
2018-04-17T14:16:27.301Z,4.10
2018-04-17T14:18:56.540Z,5.67
2018-04-17T14:21:25.171Z,4.90
2018-04-17T14:23:54.307Z,4.40
2018-04-17T14:26:22.692Z,5.57
2018-04-17T14:28:51.296Z,5.00
2018-04-17T14:31:20.481Z,4.10
2018-04-17T14:33:48.888Z,4.17
2018-04-17T14:36:17.312Z,4.20
2018-04-17T14:38:45.681Z,4.30
2018-04-17T14:41:14.065Z,7.67
2018-04-17T14:43:42.507Z,6.07
2018-04-17T14:46:10.872Z,6.73
2018-04-17T14:48:39.250Z,7.67
2018-04-17T14:51:07.657Z,8.77
2018-04-17T14:53:36.808Z,8.47
2018-04-17T14:56:05.188Z,9.90
2018-04-17T14:58:33.606Z,8.57
2018-04-17T15:01:02.858Z,7.80
2018-04-17T15:03:32.417Z,10.20
2018-04-17T15:06:01.131Z,9.43
2018-04-17T15:08:29.635Z,9.50
2018-04-17T15:10:58.004Z,8.60
2018-04-17T15:13:26.414Z,9.77
2018-04-17T15:15:55.843Z,9.53
2018-04-17T15:18:25.060Z,8.93
2018-04-17T15:20:54.241Z,7.97
2018-04-17T15:23:22.779Z,8.77
2018-04-17T15:25:51.258Z,9.13
2018-04-17T15:28:20.579Z,8.93
2018-04-17T15:30:48.957Z,10.50
2018-04-17T15:33:18.101Z,11.67
2018-04-17T15:35:46.649Z,8.47
2018-04-17T15:38:15.670Z,7.87
2018-04-17T15:40:44.127Z,8.80
2018-04-17T15:43:12.876Z,8.57
2018-04-17T15:45:41.334Z,9.30
2018-04-17T15:48:09.749Z,10.60
2018-04-17T15:50:38.385Z,9.07
2018-04-17T15:53:07.285Z,8.47
2018-04-17T15:55:35.721Z,7.90
2018-04-17T15:58:05.811Z,7.77
2018-04-17T16:00:34.185Z,9.10
2018-04-17T16:03:02.599Z,8.90
2018-04-17T16:05:31.025Z,8.50
2018-04-17T16:07:59.407Z,9.07
2018-04-17T16:10:27.799Z,21.30
2018-04-17T16:12:56.275Z,15.37
2018-04-17T16:15:24.609Z,8.47
2018-04-17T16:17:53.749Z,13.63
2018-04-17T16:20:22.149Z,10.17
2018-04-17T16:22:50.633Z,8.80
2018-04-17T16:25:19.013Z,7.97
2018-04-17T16:27:47.570Z,7.73
2018-04-17T16:30:15.960Z,8.80
2018-04-17T16:32:44.344Z,7.93
2018-04-17T16:35:12.752Z,8.27
2018-04-17T16:37:41.172Z,6.37
2018-04-17T16:40:09.548Z,6.93
2018-04-17T16:42:37.980Z,6.00
2018-04-17T16:45:07.260Z,6.50
2018-04-17T16:47:35.636Z,24.73
2018-04-17T16:50:04.069Z,10.10
2018-04-17T16:52:32.449Z,7.67
2018-04-17T16:55:00.829Z,12.57
2018-04-17T16:57:29.301Z,9.93
2018-04-17T16:59:58.425Z,10.60
2018-04-17T17:02:26.820Z,10.23
2018-04-17T17:04:55.248Z,11.40
2018-04-17T17:07:23.632Z,11.40
2018-04-17T17:09:52.014Z,12.73
2018-04-17T17:12:20.443Z,12.07
2018-04-17T17:14:48.838Z,10.80
2018-04-17T17:17:17.234Z,11.70
2018-04-17T17:19:46.412Z,11.53
2018-04-17T17:22:15.560Z,10.90
2018-04-17T17:24:43.962Z,11.37
2018-04-17T17:27:12.421Z,15.03
2018-04-17T17:29:40.809Z,14.50
2018-04-17T17:32:09.192Z,12.00
2018-04-17T17:34:37.653Z,11.20
2018-04-17T17:37:06.049Z,14.03
2018-04-17T17:39:34.429Z,11.80
2018-04-17T17:42:02.925Z,11.40
2018-04-17T17:44:31.319Z,11.87
2018-04-17T17:46:59.712Z,11.40
2018-04-17T17:49:28.901Z,10.47
2018-04-17T17:51:57.351Z,9.63
2018-04-17T17:54:25.734Z,10.90
2018-04-17T17:56:54.204Z,10.27
2018-04-17T17:59:22.576Z,9.63
2018-04-17T18:01:52.249Z,11.53
2018-04-17T18:04:21.503Z,11.77
2018-04-17T18:06:49.888Z,13.67
2018-04-17T18:09:18.705Z,12.97
2018-04-17T18:11:48.062Z,14.20
2018-04-17T18:14:17.990Z,16.10
2018-04-17T18:16:46.385Z,16.40
2018-04-17T18:19:15.872Z,19.10
2018-04-17T18:21:44.584Z,22.67
2018-04-17T18:24:14.557Z,20.30
2018-04-17T18:26:43.001Z,16.90
2018-04-17T18:29:13.164Z,15.80
2018-04-17T18:31:43.208Z,13.87
2018-04-17T18:34:11.969Z,12.70
2018-04-17T18:36:40.549Z,13.00
2018-04-17T18:39:09.075Z,13.77
2018-04-17T18:41:37.509Z,13.83
2018-04-17T18:44:06.221Z,14.77
2018-04-17T18:46:34.884Z,10.60
2018-04-17T18:49:06.953Z,12.83
2018-04-17T18:51:37.770Z,13.93
2018-04-17T18:54:07.747Z,13.80
2018-04-17T18:56:36.288Z,13.43
2018-04-17T18:59:04.911Z,12.80
2018-04-17T19:01:34.384Z,13.77
2018-04-17T19:04:03.783Z,14.13
2018-04-17T19:06:33.743Z,12.23
2018-04-17T19:09:02.558Z,13.00
2018-04-17T19:11:31.314Z,13.73
2018-04-17T19:13:59.729Z,12.23
2018-04-17T19:16:28.221Z,12.90
2018-04-17T19:18:57.265Z,12.83
2018-04-17T19:21:25.735Z,12.80
2018-04-17T19:23:54.904Z,12.70
2018-04-17T19:26:23.461Z,12.30
2018-04-17T19:28:52.096Z,14.77
2018-04-17T19:31:21.390Z,11.23
2018-04-17T19:33:49.779Z,13.20
2018-04-17T19:36:19.972Z,12.18
2018-04-17T19:38:48.428Z,12.18
2018-04-17T19:41:17.464Z,11.70
2018-04-17T19:43:46.025Z,14.63
2018-04-17T19:46:15.210Z,14.15
2018-04-17T19:48:44.469Z,17.65
2018-04-17T19:51:13.401Z,13.73
2018-04-17T19:53:42.702Z,12.93
2018-04-17T19:56:12.346Z,11.25
2018-04-17T19:58:41.825Z,10.90
2018-04-17T20:01:10.720Z,10.15
2018-04-17T20:03:40.515Z,9.18
2018-04-17T20:06:11.179Z,11.52
2018-04-17T20:08:41.465Z,9.45
2018-04-17T20:11:10.906Z,22.35
2018-04-17T20:13:40.439Z,19.75
2018-04-17T20:16:09.605Z,10.38
2018-04-17T20:18:38.113Z,9.65
2018-04-17T20:21:06.661Z,9.80
2018-04-17T20:23:35.344Z,11.07
2018-04-17T20:26:04.566Z,11.48
2018-04-17T20:28:33.626Z,13.90
2018-04-17T20:31:02.438Z,13.02
2018-04-17T20:33:31.105Z,14.55
2018-04-17T20:35:59.605Z,12.55
2018-04-17T20:38:28.789Z,10.95
2018-04-17T20:40:57.196Z,11.20
2018-04-17T20:43:26.369Z,11.02
2018-04-17T20:45:54.934Z,9.55
2018-04-17T20:48:23.670Z,11.05
2018-04-17T20:50:52.830Z,10.43
2018-04-17T20:53:21.262Z,9.82
2018-04-17T20:55:50.141Z,11.45
2018-04-17T20:58:18.735Z,10.02
2018-04-17T21:00:47.134Z,11.18
2018-04-17T21:03:15.524Z,11.12
2018-04-17T21:05:44.054Z,11.43
2018-04-17T21:08:13.276Z,11.80
2018-04-17T21:10:41.717Z,11.85
2018-04-17T21:13:10.108Z,12.02
2018-04-17T21:15:39.298Z,11.50
2018-04-17T21:18:07.840Z,11.10
2018-04-17T21:20:36.230Z,10.98
2018-04-17T21:23:04.621Z,9.90
2018-04-17T21:25:33.025Z,10.00
2018-04-17T21:28:02.171Z,10.30
2018-04-17T21:30:30.876Z,11.70
2018-04-17T21:32:59.257Z,12.57
2018-04-17T21:35:27.643Z,11.12
2018-04-17T21:37:56.049Z,12.85
2018-04-17T21:40:25.192Z,12.50
2018-04-17T21:42:53.976Z,13.30
2018-04-17T21:45:22.972Z,11.95
2018-04-17T21:47:51.397Z,12.15
2018-04-17T21:50:21.220Z,10.68
2018-04-17T21:52:49.602Z,11.10
2018-04-17T21:55:18.221Z,11.38
2018-04-17T21:58:04.683Z,11.02
2018-04-17T22:00:50.016Z,12.32
2018-04-17T22:03:19.303Z,11.40
2018-04-17T22:05:48.637Z,12.48
2018-04-17T22:08:17.025Z,11.55
2018-04-17T22:13:41.715Z,13.25
2018-04-17T22:16:10.308Z,12.60
2018-04-17T22:18:38.908Z,12.65
2018-04-17T22:21:08.060Z,12.65
2018-04-17T22:23:42.117Z,12.37
2018-04-17T22:26:16.323Z,12.35
2018-04-17T22:28:54.655Z,12.73
2018-04-17T22:31:37.812Z,13.62
2018-04-17T22:34:22.433Z,12.90
2018-04-17T22:36:55.120Z,12.25
2018-04-17T22:39:27.829Z,12.55
2018-04-17T22:41:59.541Z,15.13
2018-04-17T22:44:35.677Z,13.55
2018-04-17T22:47:11.115Z,11.00
2018-04-17T22:49:47.611Z,13.18
2018-04-17T22:52:23.696Z,12.98
2018-04-17T22:54:59.902Z,12.45
2018-04-17T22:57:28.979Z,12.48
2018-04-17T23:00:06.165Z,13.32
2018-04-17T23:02:36.774Z,12.55
2018-04-17T23:05:05.368Z,14.02
2018-04-17T23:07:39.253Z,13.50
2018-04-17T23:10:11.373Z,14.93
2018-04-17T23:12:41.307Z,12.63
2018-04-17T23:15:13.208Z,14.07
2018-04-17T23:17:42.580Z,13.70
2018-04-17T23:20:11.741Z,14.45
2018-04-17T23:22:40.141Z,13.98
2018-04-17T23:25:08.513Z,13.38
2018-04-17T23:27:36.912Z,13.07
2018-04-17T23:30:06.057Z,13.52
2018-04-17T23:32:34.730Z,12.85
2018-04-17T23:35:03.110Z,13.07
2018-04-17T23:37:31.478Z,13.70
2018-04-17T23:39:59.876Z,14.25
2018-04-17T23:42:28.254Z,13.57
2018-04-17T23:44:56.829Z,11.90
2018-04-17T23:47:25.209Z,13.02
2018-04-17T23:49:53.590Z,13.02
2018-04-17T23:52:22.013Z,12.98
2018-04-17T23:54:50.390Z,12.50
2018-04-17T23:57:18.936Z,13.30
2018-04-17T23:59:47.680Z,12.93
